Time;durP1;ratioP1;P1;durP2;ratioP2;P2;SDS_P1;SDS_P2;PMS_P1;PMS_P2;Temp;Humidity;BMP_temperature;BMP_pressure;BME280_temperature;BME280_humidity;BME280_pressure;Samples;Min_cycle;Max_cycle;Signal;HPM_P1;HPM_P2
2021/07/21 00:00:24;;;;;;;12.33;8.90;;;;;;;21.44;80.39;98808.05;1755551;80;21082;-52
2021/07/21 00:02:51;;;;;;;11.68;8.08;;;;;;;21.44;80.44;98819.00;1753658;80;21140;-53
2021/07/21 00:05:18;;;;;;;8.43;7.50;;;;;;;21.43;80.61;98820.05;1752526;80;21200;-53
2021/07/21 00:07:45;;;;;;;8.73;7.92;;;;;;;21.44;80.70;98818.14;1751240;80;21025;-53
2021/07/21 00:10:20;;;;;;;8.30;7.58;;;;;;;21.43;80.70;98825.53;1753115;80;21091;-52
2021/07/21 00:15:35;;;;;;;10.38;8.33;;;;;;;21.41;80.70;98831.67;1750541;80;22113;-52
2021/07/21 00:18:16;;;;;;;12.82;8.88;;;;;;;21.42;80.71;98826.55;1752115;80;21360;-53
2021/07/21 00:20:34;;;;;;;9.58;8.68;;;;;;;21.42;80.72;98832.53;1753608;79;21553;-52
2021/07/21 00:23:00;;;;;;;9.38;8.50;;;;;;;21.42;80.70;98831.16;1751450;80;20950;-52
2021/07/21 00:25:27;;;;;;;11.78;9.85;;;;;;;21.41;80.69;98823.97;1753482;79;21093;-52
2021/07/21 00:27:53;;;;;;;10.98;9.95;;;;;;;21.42;80.70;98825.18;1752353;80;21556;-52
2021/07/21 00:30:21;;;;;;;11.08;9.98;;;;;;;21.42;80.67;98827.92;1749032;80;21054;-52
2021/07/21 00:32:47;;;;;;;10.60;9.55;;;;;;;21.43;80.69;98826.04;1757475;80;21082;-52
2021/07/21 00:35:16;;;;;;;9.65;8.60;;;;;;;21.42;80.63;98821.07;1753076;80;21090;-52
2021/07/21 00:37:43;;;;;;;10.23;9.20;;;;;;;21.43;80.56;98812.35;1754939;80;21032;-52
2021/07/21 00:40:11;;;;;;;9.25;8.45;;;;;;;21.44;80.51;98810.78;1753457;80;21482;-52
2021/07/21 00:42:38;;;;;;;10.28;9.38;;;;;;;21.44;80.44;98815.41;1702529;82;21055;-52
2021/07/21 00:45:06;;;;;;;10.80;9.28;;;;;;;21.43;80.43;98815.95;1751893;79;21043;-52
2021/07/21 00:47:33;;;;;;;10.53;9.55;;;;;;;21.43;80.45;98820.05;1750488;80;21093;-52
2021/07/21 00:49:59;;;;;;;13.72;9.50;;;;;;;21.42;80.54;98815.59;1750572;80;21117;-52
2021/07/21 00:52:25;;;;;;;9.78;8.88;;;;;;;21.41;80.58;98808.91;1752776;80;22069;-52
2021/07/21 00:54:52;;;;;;;13.25;10.58;;;;;;;21.41;80.57;98809.77;1750671;80;21103;-52
2021/07/21 00:57:18;;;;;;;13.03;10.63;;;;;;;21.42;80.53;98809.27;1727445;80;21512;-52
2021/07/21 00:59:45;;;;;;;11.70;9.98;;;;;;;21.41;80.50;98807.55;1754499;80;21374;-52
2021/07/21 01:02:11;;;;;;;11.97;9.63;;;;;;;21.39;80.43;98803.59;1754088;79;21105;-52
2021/07/21 01:04:38;;;;;;;11.05;9.95;;;;;;;21.39;80.43;98796.75;1751880;79;21142;-52
2021/07/21 01:07:08;;;;;;;10.48;9.58;;;;;;;21.39;80.39;98795.89;1748358;80;21065;-51
2021/07/21 01:09:38;;;;;;;11.70;9.65;;;;;;;21.38;80.43;98799.65;1733326;80;21133;-51
2021/07/21 01:12:23;;;;;;;11.22;9.85;;;;;;;21.37;80.40;98794.69;1751378;80;21379;-52
2021/07/21 01:15:09;;;;;;;10.95;9.88;;;;;;;21.37;80.37;98792.45;1693113;82;21079;-51
2021/07/21 01:17:40;;;;;;;12.20;10.25;;;;;;;21.36;80.32;98786.63;1751479;80;21157;-51
2021/07/21 01:20:27;;;;;;;10.23;9.35;;;;;;;21.33;80.28;98791.95;1750026;80;21608;-51
2021/07/21 01:23:15;;;;;;;12.50;10.65;;;;;;;21.32;80.30;98780.65;1692824;82;21526;-51
2021/07/21 01:25:55;;;;;;;11.50;10.53;;;;;;;21.31;80.35;98787.66;1751330;80;21457;-51
2021/07/21 01:30:19;;;;;;;11.68;10.80;;;;;;;21.32;80.42;98782.53;1789283;78;28681;-49
2021/07/21 01:32:53;;;;;;;11.83;10.83;;;;;;;21.26;80.47;98781.83;1761713;79;21053;-49
2021/07/21 01:35:23;;;;;;;11.00;10.10;;;;;;;21.24;80.43;98777.88;1765508;79;22254;-49
2021/07/21 01:37:59;;;;;;;12.80;11.50;;;;;;;21.24;80.49;98786.60;1730644;81;20942;-50
2021/07/21 01:40:35;;;;;;;11.85;10.15;;;;;;;21.22;80.44;98773.08;1730775;81;20931;-49
2021/07/21 01:43:01;;;;;;;11.75;10.72;;;;;;;21.19;80.54;98769.29;1701957;81;20867;-49
2021/07/21 01:45:29;;;;;;;17.82;9.73;;;;;;;21.20;80.54;98772.89;1681126;82;21025;-48
2021/07/21 01:47:57;;;;;;;12.47;9.15;;;;;;;21.19;80.61;98767.92;1714279;82;21074;-48
2021/07/21 01:50:24;;;;;;;12.93;9.48;;;;;;;21.20;80.71;98771.52;1714610;82;21537;-48
2021/07/21 01:52:51;;;;;;;9.65;8.83;;;;;;;21.19;80.77;98775.27;1714079;81;20989;-48
2021/07/21 01:55:21;;;;;;;10.48;9.53;;;;;;;21.19;80.77;98772.53;1698823;82;20986;-50
2021/07/21 01:57:48;;;;;;;12.30;9.13;;;;;;;21.18;80.79;98772.22;1714535;82;20987;-50
2021/07/21 02:00:22;;;;;;;10.48;9.45;;;;;;;21.18;80.78;98773.59;1684965;82;21826;-50
2021/07/21 02:02:55;;;;;;;9.90;8.90;;;;;;;21.20;80.81;98772.89;1710344;82;21483;-50
2021/07/21 02:05:26;;;;;;;10.63;9.33;;;;;;;21.19;80.73;98776.64;1690756;82;21618;-52
2021/07/21 02:07:52;;;;;;;13.25;11.38;;;;;;;21.19;80.70;98776.64;1711222;82;20895;-52
2021/07/21 02:10:22;;;;;;;11.88;10.63;;;;;;;21.19;80.68;98782.11;1709968;82;21100;-53
2021/07/21 02:13:03;;;;;;;10.85;9.95;;;;;;;21.17;80.70;98780.05;1709615;82;21914;-53
2021/07/21 02:15:32;;;;;;;11.40;10.32;;;;;;;21.15;80.65;98779.70;1683098;82;21581;-53
2021/07/21 02:17:59;;;;;;;14.90;11.33;;;;;;;21.15;80.80;98782.43;1683907;82;21116;-53
2021/07/21 02:20:26;;;;;;;11.48;9.73;;;;;;;21.15;80.88;98780.20;1711731;82;21143;-52
2021/07/21 02:22:54;;;;;;;10.98;9.98;;;;;;;21.15;80.94;98789.27;1710820;82;21583;-53
2021/07/21 02:25:39;;;;;;;13.60;10.93;;;;;;;21.15;80.99;98790.64;1713634;82;21599;-53
2021/07/21 02:28:05;;;;;;;11.85;10.65;;;;;;;21.17;81.02;98785.52;1708981;82;21117;-52
2021/07/21 02:30:34;;;;;;;14.30;10.50;;;;;;;21.18;81.04;98787.27;1710441;82;21561;-52
2021/07/21 02:33:12;;;;;;;10.85;9.60;;;;;;;21.18;81.04;98782.63;1710835;82;21057;-51
2021/07/21 02:35:39;;;;;;;14.20;11.55;;;;;;;21.18;80.99;98788.64;1709764;82;20946;-53
2021/07/21 02:38:05;;;;;;;11.80;10.70;;;;;;;21.17;81.01;98795.09;1715147;82;21736;-51
2021/07/21 02:40:33;;;;;;;12.68;11.40;;;;;;;21.15;81.09;98794.75;1710367;82;21136;-52
2021/07/21 02:43:04;;;;;;;13.08;10.63;;;;;;;21.13;81.12;98796.78;1710250;81;21145;-52
2021/07/21 02:45:35;;;;;;;12.82;11.48;;;;;;;21.14;81.11;98799.86;1711533;82;21531;-53
2021/07/21 02:48:05;;;;;;;18.92;11.40;;;;;;;21.15;81.15;98803.46;1705775;82;21464;-52
2021/07/21 02:50:33;;;;;;;15.28;12.88;;;;;;;21.14;81.11;98801.74;1708640;82;21216;-52
2021/07/21 02:53:10;;;;;;;12.90;11.73;;;;;;;21.12;81.18;98803.27;1710322;81;21084;-52
2021/07/21 02:55:59;;;;;;;13.90;12.43;;;;;;;21.13;81.17;98801.39;1709489;82;21505;-51
2021/07/21 02:58:45;;;;;;;17.62;12.35;;;;;;;21.11;81.19;98801.55;1708377;82;21009;-52
2021/07/21 03:01:13;;;;;;;13.72;12.23;;;;;;;21.11;81.22;98800.69;1683760;82;21589;-52
2021/07/21 03:03:42;;;;;;;17.40;12.98;;;;;;;21.10;81.20;98799.83;1688336;82;21112;-53
2021/07/21 03:06:09;;;;;;;15.35;12.80;;;;;;;21.09;81.23;98806.35;1713308;82;21062;-52
2021/07/21 03:08:37;;;;;;;13.70;12.33;;;;;;;21.09;81.24;98806.35;1709094;82;21092;-54
2021/07/21 03:11:06;;;;;;;16.15;14.15;;;;;;;21.09;81.22;98811.83;1707958;82;21121;-52
2021/07/21 03:13:54;;;;;;;16.57;13.35;;;;;;;21.10;81.27;98822.23;1708902;82;21092;-52
2021/07/21 03:16:30;;;;;;;15.93;12.37;;;;;;;21.08;81.21;98821.05;1710178;82;21563;-53
2021/07/21 03:19:00;;;;;;;15.75;14.15;;;;;;;21.07;81.33;98822.58;1708930;82;21077;-52
2021/07/21 03:21:29;;;;;;;18.50;12.33;;;;;;;21.07;81.30;98834.89;1711887;82;20930;-53
2021/07/21 03:24:03;;;;;;;14.60;13.05;;;;;;;21.08;81.27;98832.00;1709916;82;21893;-53
2021/07/21 03:26:50;;;;;;;15.90;14.25;;;;;;;21.08;81.16;98837.47;1708220;82;21073;-52
2021/07/21 03:29:19;;;;;;;15.00;13.18;;;;;;;21.06;81.13;98840.01;1701416;82;21157;-51
2021/07/21 03:31:46;;;;;;;18.07;13.38;;;;;;;21.05;81.11;98839.15;1664211;84;21062;-51
2021/07/21 03:34:13;;;;;;;16.62;14.93;;;;;;;21.03;81.19;98841.69;1687833;84;21073;-51
2021/07/21 03:36:47;;;;;;;13.38;12.13;;;;;;;21.01;80.97;98844.58;1684302;84;21157;-51
2021/07/21 03:39:33;;;;;;;15.15;13.28;;;;;;;20.99;80.81;98844.42;1695282;84;21069;-51
2021/07/21 03:42:17;;;;;;;14.18;12.80;;;;;;;20.96;80.47;98843.36;1736779;80;21140;-51
2021/07/21 03:44:45;;;;;;;14.55;13.08;;;;;;;20.89;79.84;98849.13;1740670;80;21117;-50
2021/07/21 03:47:16;;;;;;;13.75;12.55;;;;;;;20.83;79.75;98852.02;1740426;80;21124;-51
2021/07/21 03:49:42;;;;;;;14.28;12.88;;;;;;;20.77;79.59;98848.02;1735011;80;21058;-50
2021/07/21 03:52:11;;;;;;;16.70;12.88;;;;;;;20.73;79.59;98853.48;1735225;80;21066;-51
2021/07/21 03:54:38;;;;;;;14.10;12.70;;;;;;;20.68;79.58;98850.85;1734257;80;21134;-50
2021/07/21 03:57:24;;;;;;;13.93;12.45;;;;;;;20.64;79.66;98849.47;1739617;80;21065;-51
2021/07/21 03:59:53;;;;;;;18.45;13.28;;;;;;;20.59;79.86;98852.66;1735857;80;21066;-51
2021/07/21 04:02:20;;;;;;;15.65;12.88;;;;;;;20.57;79.96;98851.98;1734991;80;21100;-52
2021/07/21 04:04:47;;;;;;;13.43;12.03;;;;;;;20.57;80.11;98852.50;1713313;80;21097;-51
2021/07/21 04:07:17;;;;;;;17.52;12.60;;;;;;;20.56;80.07;98843.94;1737785;80;21146;-52
2021/07/21 04:09:51;;;;;;;17.62;13.80;;;;;;;20.53;80.08;98852.45;1738848;80;21022;-51
2021/07/21 04:12:19;;;;;;;15.98;13.18;;;;;;;20.49;80.19;98856.53;1738192;80;21429;-51
2021/07/21 04:14:51;;;;;;;15.95;12.63;;;;;;;20.47;80.42;98848.98;1738811;80;21873;-50
2021/07/21 04:17:37;;;;;;;14.93;12.65;;;;;;;20.44;80.59;98849.30;1741940;80;21054;-50
2021/07/21 04:20:07;;;;;;;12.98;11.48;;;;;;;20.38;80.79;98847.56;1735869;80;21463;-52
2021/07/21 04:22:34;;;;;;;12.65;11.45;;;;;;;20.35;81.02;98845.63;1738796;80;20990;-51
2021/07/21 04:25:00;;;;;;;12.28;11.05;;;;;;;20.31;81.21;98845.58;1733461;80;21077;-51
2021/07/21 04:27:29;;;;;;;12.70;11.35;;;;;;;20.29;81.45;98848.97;1717420;80;20970;-49
2021/07/21 04:30:00;;;;;;;11.43;10.23;;;;;;;20.26;81.72;98852.00;1740711;80;21394;-51
2021/07/21 04:32:28;;;;;;;14.47;11.00;;;;;;;20.25;81.89;98848.41;1732165;80;21093;-51
2021/07/21 04:34:55;;;;;;;12.73;11.43;;;;;;;20.24;82.08;98852.19;1755635;80;20955;-51
2021/07/21 04:37:22;;;;;;;12.30;11.00;;;;;;;20.24;82.24;98851.33;1753261;80;20922;-51
2021/07/21 04:40:03;;;;;;;11.75;10.48;;;;;;;20.24;82.39;98851.33;1716095;82;21363;-51
2021/07/21 04:42:38;;;;;;;11.97;10.80;;;;;;;20.24;82.57;98849.97;1737646;80;20912;-52
2021/07/21 04:45:05;;;;;;;11.85;10.65;;;;;;;20.26;82.74;98848.77;1753768;80;21144;-51
2021/07/21 04:47:36;;;;;;;13.68;12.25;;;;;;;20.29;82.86;98851.70;1754112;80;20868;-50
2021/07/21 04:50:07;;;;;;;14.70;11.68;;;;;;;20.31;82.65;98851.91;1752619;80;20920;-51
2021/07/21 04:52:33;;;;;;;11.95;10.80;;;;;;;20.31;82.65;98856.52;1752468;80;20991;-51
2021/07/21 04:55:01;;;;;;;12.88;11.73;;;;;;;20.31;82.72;98856.52;1738777;80;20979;-51
2021/07/21 04:57:27;;;;;;;13.98;12.58;;;;;;;20.32;82.40;98855.00;1723520;80;21753;-53
2021/07/21 04:59:58;;;;;;;13.83;12.45;;;;;;;20.31;82.13;98856.01;1748921;80;20990;-52
2021/07/21 05:02:26;;;;;;;14.78;13.25;;;;;;;20.32;82.21;98865.92;1752308;80;21636;-51
2021/07/21 05:04:52;;;;;;;13.70;12.18;;;;;;;20.34;82.15;98864.41;1751858;80;20892;-52
2021/07/21 05:07:24;;;;;;;14.13;12.73;;;;;;;20.38;82.10;98871.30;1755199;80;21347;-52
2021/07/21 05:09:52;;;;;;;14.90;12.45;;;;;;;20.41;82.02;98868.77;1748803;80;21372;-51
2021/07/21 05:12:21;;;;;;;13.98;12.50;;;;;;;20.43;81.67;98870.30;1702537;82;20944;-50
2021/07/21 05:14:49;;;;;;;12.00;10.85;;;;;;;20.45;81.70;98871.02;1755513;80;21525;-50
2021/07/21 05:17:33;;;;;;;;;;;;;;;20.47;81.53;98870.35;1752949;80;20940;-51
2021/07/21 05:20:00;;;;;;;11.88;10.68;;;;;;;20.50;81.32;98873.29;1752578;80;20157;-51
2021/07/21 05:22:28;;;;;;;11.70;10.53;;;;;;;20.50;80.99;98876.02;1756408;80;21125;-52
2021/07/21 05:24:55;;;;;;;13.98;10.40;;;;;;;20.53;80.93;98871.59;1759355;80;21146;-51
2021/07/21 05:27:22;;;;;;;11.53;10.53;;;;;;;20.57;80.80;98875.23;1749352;80;21064;-51
2021/07/21 05:29:48;;;;;;;10.60;9.70;;;;;;;20.59;80.18;98877.78;1748373;80;21050;-51
2021/07/21 05:32:17;;;;;;;11.60;10.28;;;;;;;20.61;80.07;98873.87;1747784;80;21065;-50
2021/07/21 05:34:53;;;;;;;11.73;9.45;;;;;;;20.62;79.45;98876.11;1728981;80;21737;-50
2021/07/21 05:37:21;;;;;;;9.68;8.60;;;;;;;20.64;79.33;98874.94;1749579;80;21066;-50
2021/07/21 05:39:51;;;;;;;9.90;9.00;;;;;;;20.66;79.07;98879.75;1746240;80;21041;-51
2021/07/21 05:42:18;;;;;;;12.00;8.55;;;;;;;20.71;78.85;98882.85;1746694;80;21141;-50
2021/07/21 05:44:46;;;;;;;8.65;7.83;;;;;;;20.75;78.78;98877.94;1743768;80;21038;-50
2021/07/21 05:47:13;;;;;;;8.03;6.53;;;;;;;20.78;78.11;98873.49;1748838;80;21166;-51
2021/07/21 05:49:39;;;;;;;6.90;6.30;;;;;;;20.80;77.58;98873.34;1718294;80;21199;-52
2021/07/21 05:52:14;;;;;;;;;;;;;;;20.83;76.69;98868.42;1736379;80;21093;-52
2021/07/21 05:54:42;;;;;;;6.22;5.72;;;;;;;20.85;76.43;98870.97;1747164;80;20100;-51
2021/07/21 05:57:10;;;;;;;7.28;6.70;;;;;;;20.87;76.17;98864.33;1747257;80;20970;-52
2021/07/21 05:59:38;;;;;;;6.53;5.72;;;;;;;20.92;75.81;98875.67;1752293;80;21745;-52
2021/07/21 06:02:05;;;;;;;8.75;5.78;;;;;;;20.99;75.92;98875.37;1746572;80;21394;-50
2021/07/21 06:04:32;;;;;;;5.83;5.12;;;;;;;21.07;75.53;98880.89;1751793;80;21070;-49
2021/07/21 06:07:17;;;;;;;6.00;5.47;;;;;;;21.13;75.33;98873.40;1744441;80;21046;-50
2021/07/21 06:09:48;;;;;;;6.62;5.12;;;;;;;21.20;75.09;98878.25;1743542;80;21434;-50
2021/07/21 06:12:17;;;;;;;6.03;5.35;;;;;;;21.27;74.80;98880.67;1746268;80;21127;-51
2021/07/21 06:14:43;;;;;;;7.83;5.20;;;;;;;21.30;73.65;98883.09;1748959;80;21611;-51
2021/07/21 06:17:10;;;;;;;6.85;4.90;;;;;;;21.30;73.40;98878.48;1746833;80;21439;-51
2021/07/21 06:19:53;;;;;;;9.78;5.53;;;;;;;21.32;73.68;98877.82;1672678;84;21505;-51
2021/07/21 06:22:19;;;;;;;5.50;5.00;;;;;;;21.34;73.57;98877.66;1722177;80;21402;-51
2021/07/21 06:24:48;;;;;;;5.72;4.72;;;;;;;21.32;73.27;98876.45;1743656;80;21459;-51
2021/07/21 06:27:16;;;;;;;5.37;4.20;;;;;;;21.31;73.31;98876.09;1744667;80;20998;-50
2021/07/21 06:29:44;;;;;;;7.33;5.30;;;;;;;21.34;73.35;98876.30;1746541;80;21006;-52
2021/07/21 06:32:12;;;;;;;6.10;4.35;;;;;;;21.36;73.58;98874.23;1747676;80;21061;-50
2021/07/21 06:34:39;;;;;;;4.45;4.05;;;;;;;21.40;73.64;98875.63;1755135;80;20947;-51
2021/07/21 06:37:08;;;;;;;7.15;4.92;;;;;;;21.44;73.26;98877.86;1755325;80;21649;-52
2021/07/21 06:39:35;;;;;;;4.72;4.25;;;;;;;21.48;72.83;98875.16;1735547;80;21116;-51
2021/07/21 06:42:02;;;;;;;6.62;5.55;;;;;;;21.52;72.41;98874.33;1747666;80;22005;-52
2021/07/21 06:44:30;;;;;;;5.97;4.80;;;;;;;21.55;72.23;98870.39;1749867;80;21062;-51
2021/07/21 06:47:04;;;;;;;4.62;3.42;;;;;;;21.58;71.90;98866.82;1715565;80;21106;-52
2021/07/21 06:49:32;;;;;;;6.40;4.37;;;;;;;21.61;71.97;98870.58;1747992;80;21136;-50
2021/07/21 06:51:59;;;;;;;4.40;3.95;;;;;;;21.63;71.89;98871.78;1752496;80;21406;-51
2021/07/21 06:54:27;;;;;;;3.70;3.40;;;;;;;21.66;71.38;98877.80;1760941;80;21046;-50
2021/07/21 06:57:10;;;;;;;9.58;4.75;;;;;;;21.69;71.71;98872.52;1714902;80;21101;-51
2021/07/21 06:59:55;;;;;;;5.45;4.35;;;;;;;21.75;71.23;98875.45;1734102;80;21498;-52
2021/07/21 07:02:26;;;;;;;5.40;4.75;;;;;;;21.80;71.14;98882.64;1747706;80;22068;-50
2021/07/21 07:05:12;;;;;;;7.20;4.33;;;;;;;21.86;70.37;98878.40;1754748;80;21053;-50
2021/07/21 07:07:57;;;;;;;3.55;3.25;;;;;;;21.93;69.84;98879.44;1754819;80;21073;-51
2021/07/21 07:10:32;;;;;;;3.27;2.98;;;;;;;21.98;69.44;98876.22;1751183;80;21042;-51
2021/07/21 07:12:59;;;;;;;3.70;3.20;;;;;;;22.02;69.99;98871.63;1753988;80;21575;-52
2021/07/21 07:15:25;;;;;;;4.58;3.65;;;;;;;22.10;69.83;98881.74;1747719;80;21961;-51
2021/07/21 07:17:52;;;;;;;6.75;3.55;;;;;;;22.22;69.83;98868.91;1750177;80;20895;-52
2021/07/21 07:20:18;;;;;;;8.68;3.87;;;;;;;22.35;69.89;98869.80;1753853;80;20962;-52
2021/07/21 07:22:45;;;;;;;4.97;4.60;;;;;;;22.49;69.76;98873.22;1753782;80;21762;-51
2021/07/21 07:25:12;;;;;;;3.45;3.15;;;;;;;22.62;69.81;98879.07;1749381;80;20969;-51
2021/07/21 07:27:38;;;;;;;6.33;3.05;;;;;;;22.72;68.74;98885.73;1734806;80;21179;-52
2021/07/21 07:30:06;;;;;;;4.15;3.62;;;;;;;22.80;66.83;98874.78;1752450;80;21042;-53
2021/07/21 07:32:32;;;;;;;2.85;2.62;;;;;;;22.84;65.14;98874.80;1751484;80;20980;-52
2021/07/21 07:34:59;;;;;;;3.20;2.90;;;;;;;22.89;65.28;98873.74;1745324;80;21343;-52
2021/07/21 07:37:25;;;;;;;7.70;4.12;;;;;;;23.00;64.80;98870.66;1748174;80;20958;-50
2021/07/21 07:39:52;;;;;;;6.83;3.75;;;;;;;23.08;64.94;98864.80;1750211;80;21091;-53
2021/07/21 07:42:18;;;;;;;3.77;3.42;;;;;;;23.16;65.08;98861.52;1745334;80;21353;-53
2021/07/21 07:44:44;;;;;;;6.33;3.85;;;;;;;23.21;65.50;98863.25;1744388;80;21738;-53
2021/07/21 07:47:11;;;;;;;4.65;4.25;;;;;;;23.26;66.34;98862.19;1748477;80;21057;-53
2021/07/21 07:49:37;;;;;;;4.62;3.05;;;;;;;23.29;66.60;98865.97;1747409;80;21073;-52
2021/07/21 07:52:04;;;;;;;4.10;2.92;;;;;;;23.32;66.14;98871.59;1744981;80;21639;-53
2021/07/21 07:54:30;;;;;;;2.55;2.22;;;;;;;23.30;64.39;98875.92;1747007;80;21054;-53
2021/07/21 07:56:57;;;;;;;5.33;2.90;;;;;;;23.27;64.96;98872.66;1743987;80;21508;-53
2021/07/21 07:59:23;;;;;;;3.75;2.95;;;;;;;23.20;64.54;98884.00;1744557;80;21063;-53
2021/07/21 08:01:49;;;;;;;3.00;2.47;;;;;;;23.14;64.75;98877.85;1744597;80;21057;-51
2021/07/21 08:04:16;;;;;;;5.62;2.05;;;;;;;23.10;65.02;98886.94;1748337;80;21073;-53
2021/07/21 08:06:43;;;;;;;2.95;2.47;;;;;;;23.09;65.11;98889.33;1740875;80;21652;-52
2021/07/21 08:09:13;;;;;;;4.35;2.27;;;;;;;23.12;65.32;98886.77;1747995;80;21082;-52
2021/07/21 08:11:52;;;;;;;4.08;2.17;;;;;;;23.17;64.76;98882.97;1749914;80;21077;-52
2021/07/21 08:14:19;;;;;;;4.62;1.92;;;;;;;23.20;63.18;98894.47;1743750;80;21057;-52
2021/07/21 08:16:49;;;;;;;2.80;2.40;;;;;;;23.19;63.41;98897.38;1747095;80;21108;-52
2021/07/21 08:19:16;;;;;;;4.90;1.98;;;;;;;23.18;62.69;98900.64;1747786;80;21038;-52
2021/07/21 08:21:42;;;;;;;2.35;2.15;;;;;;;23.13;62.02;98892.09;1752118;80;21069;-52
2021/07/21 08:24:09;;;;;;;3.47;2.42;;;;;;;23.07;62.49;98905.63;1752698;80;21429;-52
2021/07/21 08:26:35;;;;;;;2.92;1.90;;;;;;;23.01;63.04;98899.81;1748048;80;21129;-52
2021/07/21 08:29:04;;;;;;;3.00;1.80;;;;;;;23.01;63.16;98898.95;1747527;80;21119;-52
2021/07/21 08:31:31;;;;;;;2.30;2.08;;;;;;;23.00;62.88;98893.13;1749590;80;21054;-52
2021/07/21 08:34:05;;;;;;;2.80;2.08;;;;;;;22.98;62.94;98893.29;1749205;80;20950;-53
2021/07/21 08:36:29;;;;;;;3.58;2.02;;;;;;;22.98;63.18;98897.92;1746987;80;21025;-51
2021/07/21 08:38:55;;;;;;;2.47;2.20;;;;;;;22.99;63.47;98905.98;1745161;80;20912;-52
2021/07/21 08:41:23;;;;;;;2.30;2.02;;;;;;;23.03;63.45;98898.79;1749730;80;21103;-52
2021/07/21 08:43:49;;;;;;;4.78;2.40;;;;;;;23.07;63.93;98910.61;1746181;80;20979;-53
2021/07/21 08:46:15;;;;;;;10.03;2.67;;;;;;;23.10;62.69;98899.80;1745443;80;21049;-52
2021/07/21 08:48:42;;;;;;;9.00;2.08;;;;;;;23.10;62.80;98897.92;1746605;80;21065;-51
2021/07/21 08:51:09;;;;;;;4.90;2.50;;;;;;;23.13;61.80;98899.47;1747790;80;21085;-51
2021/07/21 08:53:36;;;;;;;3.60;2.92;;;;;;;23.13;61.32;98898.09;1745657;80;21156;-52
2021/07/21 08:56:04;;;;;;;7.00;2.05;;;;;;;23.16;61.84;98889.48;1747615;80;21021;-51
2021/07/21 08:58:31;;;;;;;2.22;2.02;;;;;;;23.21;60.97;98892.07;1745582;80;21117;-51
2021/07/21 09:00:57;;;;;;;2.72;2.15;;;;;;;23.29;61.57;98898.06;1750032;80;21573;-52
2021/07/21 09:03:24;;;;;;;2.20;1.92;;;;;;;23.35;61.40;98902.84;1745632;80;21612;-51
2021/07/21 09:05:50;;;;;;;2.47;1.57;;;;;;;23.39;60.87;98899.55;1747425;80;21160;-52
2021/07/21 09:08:17;;;;;;;4.72;1.70;;;;;;;23.43;60.64;98901.95;1746793;80;21053;-51
2021/07/21 09:10:46;;;;;;;2.17;1.87;;;;;;;23.45;60.67;98902.64;1746993;80;21089;-51
2021/07/21 09:13:14;;;;;;;2.77;2.33;;;;;;;23.43;59.49;98897.32;1747626;80;21359;-52
2021/07/21 09:15:42;;;;;;;2.25;1.98;;;;;;;23.42;59.69;98895.60;1748830;80;22195;-52
2021/07/21 09:18:13;;;;;;;5.25;2.62;;;;;;;23.46;60.23;98901.61;1746828;80;21882;-52
2021/07/21 09:20:43;;;;;;;4.75;1.67;;;;;;;23.51;60.56;98901.96;1748130;80;21121;-52
2021/07/21 09:23:10;;;;;;;2.77;2.22;;;;;;;23.52;60.92;98893.55;1720060;81;21058;-52
2021/07/21 09:25:38;;;;;;;3.52;2.02;;;;;;;23.52;60.82;98899.56;1745116;80;21054;-52
2021/07/21 09:28:07;;;;;;;2.67;1.90;;;;;;;23.54;60.45;98901.63;1748345;80;21414;-51
2021/07/21 09:30:37;;;;;;;2.02;1.55;;;;;;;23.57;60.45;98897.13;1749792;80;21838;-52
2021/07/21 09:33:11;;;;;;;3.12;1.70;;;;;;;23.61;60.26;98897.13;1745528;80;21484;-51
2021/07/21 09:35:44;;;;;;;3.40;2.08;;;;;;;23.65;60.71;98896.58;1746068;80;21076;-52
2021/07/21 09:38:13;;;;;;;4.08;2.08;;;;;;;23.70;60.89;98893.31;1743991;80;20963;-51
2021/07/21 09:40:49;;;;;;;2.12;1.92;;;;;;;23.74;60.94;98896.89;1747732;80;21145;-52
2021/07/21 09:43:18;;;;;;;1.87;1.30;;;;;;;23.75;59.75;98897.75;1746003;80;21132;-51
2021/07/21 09:45:45;;;;;;;5.60;2.00;;;;;;;23.73;59.94;98899.30;1747640;80;21017;-51
2021/07/21 09:48:12;;;;;;;3.80;2.40;;;;;;;23.69;59.99;98897.95;1745015;80;21095;-52
2021/07/21 09:50:42;;;;;;;4.60;1.65;;;;;;;23.68;60.78;98894.00;1748563;80;20911;-52
2021/07/21 09:53:14;;;;;;;5.60;1.65;;;;;;;23.66;60.94;98896.06;1744964;80;21074;-53
2021/07/21 09:55:45;;;;;;;1.98;1.50;;;;;;;23.67;61.13;98892.28;1748083;80;21338;-52
2021/07/21 09:58:23;;;;;;;4.28;2.33;;;;;;;23.71;60.98;98891.77;1750371;80;20947;-53
2021/07/21 10:00:48;;;;;;;4.00;1.62;;;;;;;23.76;61.11;98889.33;1744896;80;21396;-53
2021/07/21 10:03:25;;;;;;;2.92;1.70;;;;;;;23.80;60.70;98892.59;1744993;80;21278;-52
2021/07/21 10:06:00;;;;;;;2.47;1.60;;;;;;;23.86;60.76;98892.38;1751011;80;20979;-52
2021/07/21 10:08:42;;;;;;;4.17;1.85;;;;;;;23.89;60.27;98892.03;1748330;80;21421;-52
2021/07/21 10:11:31;;;;;;;3.15;1.77;;;;;;;23.91;60.81;98889.42;1747463;80;21091;-52
2021/07/21 10:14:11;;;;;;;1.70;1.60;;;;;;;23.96;60.57;98886.16;1747910;80;20910;-52
2021/07/21 10:16:49;;;;;;;4.53;1.60;;;;;;;24.03;60.35;98877.00;1748178;80;21015;-53
2021/07/21 10:19:27;;;;;;;3.67;1.57;;;;;;;24.10;60.43;98881.25;1749587;80;21018;-52
2021/07/21 10:22:00;;;;;;;1.62;1.30;;;;;;;24.22;60.81;98875.73;1753144;80;20888;-52
2021/07/21 10:24:32;;;;;;;2.58;1.82;;;;;;;24.30;59.60;98881.69;1746728;80;20978;-53
2021/07/21 10:26:58;;;;;;;2.35;1.47;;;;;;;24.38;59.29;98869.25;1749768;80;21039;-52
2021/07/21 10:29:25;;;;;;;1.87;1.72;;;;;;;24.39;59.28;98880.08;1746570;80;20987;-53
2021/07/21 10:31:52;;;;;;;2.83;1.45;;;;;;;24.42;58.88;98877.45;1748354;80;20903;-53
2021/07/21 10:34:19;;;;;;;1.95;1.30;;;;;;;24.43;58.07;98873.67;1751580;80;21467;-53
2021/07/21 10:36:45;;;;;;;2.98;1.60;;;;;;;24.42;58.90;98881.06;1753983;80;21480;-53
2021/07/21 10:39:20;;;;;;;1.95;1.85;;;;;;;24.44;58.52;98879.52;1751582;80;21418;-53
2021/07/21 10:41:47;;;;;;;3.00;1.85;;;;;;;24.45;58.58;98870.23;1751882;80;20919;-52
2021/07/21 10:44:16;;;;;;;4.58;1.52;;;;;;;24.49;58.33;98866.94;1752077;80;21454;-52
2021/07/21 10:46:47;;;;;;;5.97;1.40;;;;;;;24.53;58.13;98870.16;1754027;80;21348;-53
2021/07/21 10:49:31;;;;;;;3.55;1.60;;;;;;;24.56;57.73;98875.83;1750766;80;20933;-52
2021/07/21 11:00:30;;;;;;;2.58;1.70;;;;;;;24.66;54.68;98875.92;1750162;80;21428;-53
2021/07/21 11:03:19;;;;;;;2.05;1.60;;;;;;;24.65;55.82;98870.08;1735418;80;21129;-53
2021/07/21 11:05:50;;;;;;;2.37;1.65;;;;;;;24.64;55.69;98880.75;1748764;80;21133;-52
2021/07/21 11:08:21;;;;;;;3.33;1.65;;;;;;;24.68;56.31;98877.09;1709779;80;21049;-52
2021/07/21 11:10:50;;;;;;;1.50;1.27;;;;;;;24.68;55.60;98882.07;1750558;80;20923;-52
2021/07/21 11:13:34;;;;;;;2.22;1.37;;;;;;;24.69;55.63;98878.28;1750018;79;21528;-53
2021/07/21 11:16:01;;;;;;;;;;;;;;;24.69;55.81;98881.55;1747486;80;21509;-53
2021/07/21 11:18:41;;;;;;;3.00;1.25;;;;;;;24.72;56.48;98875.69;1749231;80;20404;-53
2021/07/21 11:21:18;;;;;;;2.95;1.25;;;;;;;24.76;56.73;98874.27;1750525;80;21093;-53
2021/07/21 11:23:58;;;;;;;1.90;1.25;;;;;;;24.76;56.33;98883.38;1749624;80;21131;-52
2021/07/21 11:26:35;;;;;;;1.92;1.30;;;;;;;24.73;56.27;98878.78;1747990;80;21100;-54
2021/07/21 11:29:32;;;;;;;2.25;1.10;;;;;;;24.66;56.33;98881.42;1747940;80;21034;-53
2021/07/21 11:31:58;;;;;;;3.12;1.07;;;;;;;24.59;56.39;98885.92;1694579;82;21424;-52
2021/07/21 11:34:32;;;;;;;1.75;0.82;;;;;;;24.52;56.47;98882.20;1753760;80;21426;-52
2021/07/21 11:37:01;;;;;;;1.92;1.20;;;;;;;24.46;56.65;98897.56;1754465;80;21126;-51
2021/07/21 11:39:47;;;;;;;1.40;1.00;;;;;;;24.41;56.76;98891.73;1748552;80;22408;-51
2021/07/21 11:42:30;;;;;;;3.45;0.95;;;;;;;24.35;57.16;98899.34;1747854;80;21654;-53
2021/07/21 11:45:11;;;;;;;1.27;0.90;;;;;;;24.28;57.06;98901.11;1751477;80;21042;-53
2021/07/21 11:47:45;;;;;;;2.20;1.52;;;;;;;24.22;57.08;98907.86;1749686;80;21579;-53
2021/07/21 11:50:17;;;;;;;1.10;1.00;;;;;;;24.17;57.57;98908.88;1748681;80;21106;-52
2021/07/21 11:52:47;;;;;;;2.17;0.93;;;;;;;24.11;57.02;98905.83;1747426;80;22264;-53
2021/07/21 11:55:13;;;;;;;5.58;1.07;;;;;;;24.05;57.46;98902.43;1746067;80;21726;-53
2021/07/21 11:57:40;;;;;;;4.10;1.10;;;;;;;24.04;57.68;98897.96;1751993;80;21383;-53